Time;durP1;ratioP1;P1;durP2;ratioP2;P2;SDS_P1;SDS_P2;PMS_P1;PMS_P2;Temp;Humidity;BMP_temperature;BMP_pressure;BME280_temperature;BME280_humidity;BME280_pressure;Samples;Min_cycle;Max_cycle;Signal;HPM_P1;HPM_P2
2023/05/19 00:01:28;;;;;;;4.90;4.10;;;14.20;99.90;;;12.39;100.00;100688.78;10311065;28;97927;-89
2023/05/19 00:06:32;;;;;;;7.73;3.77;;;14.10;99.90;;;12.38;100.00;100687.13;10275831;28;96677;-89
2023/05/19 00:11:38;;;;;;;51.57;7.53;;;14.10;99.90;;;12.34;100.00;100697.25;10306360;28;96870;-88
2023/05/19 00:16:41;;;;;;;19.50;5.93;;;14.10;99.90;;;12.31;100.00;100686.94;10308529;28;97438;-89
2023/05/19 00:21:44;;;;;;;5.57;4.07;;;14.00;99.90;;;12.28;100.00;100685.44;10314902;28;97586;-90
2023/05/19 00:26:47;;;;;;;16.50;5.63;;;14.00;99.90;;;12.23;100.00;100681.59;10299400;28;96653;-89
2023/05/19 00:31:51;;;;;;;5.77;4.57;;;14.00;99.90;;;12.19;100.00;100681.13;10313178;28;97994;-89
2023/05/19 00:36:54;;;;;;;6.73;5.30;;;13.90;99.90;;;12.17;100.00;100683.09;10316103;28;96746;-89
2023/05/19 00:41:57;;;;;;;10.30;5.30;;;13.90;99.90;;;12.15;100.00;100681.63;10315080;28;96656;-89
2023/05/19 00:47:01;;;;;;;113.90;11.33;;;13.90;99.90;;;12.14;100.00;100679.97;10339113;28;96566;-90
2023/05/19 00:52:06;;;;;;;6.00;4.30;;;13.90;99.90;;;12.12;100.00;100681.97;10340446;28;96456;-89
2023/05/19 00:57:08;;;;;;;7.07;4.67;;;13.90;99.90;;;12.13;100.00;100667.63;10356887;28;96450;-89
2023/05/19 01:02:12;;;;;;;5.23;4.10;;;13.90;99.90;;;12.12;100.00;100665.97;10314434;28;97274;-88
2023/05/19 01:07:15;;;;;;;5.60;4.40;;;13.90;99.90;;;12.12;100.00;100677.47;10354015;28;98159;-89
2023/05/19 01:12:18;;;;;;;10.30;6.47;;;13.80;99.90;;;12.12;100.00;100679.28;10322221;28;96777;-89
2023/05/19 01:17:33;;;;;;;8.37;6.27;;;13.80;99.90;;;12.10;100.00;100666.13;10347401;28;98421;-90
2023/05/19 01:23:13;;;;;;;49.33;6.93;;;13.80;99.90;;;12.12;100.00;100671.31;10355055;28;96798;-90
2023/05/19 01:28:57;;;;;;;23.67;7.20;;;13.80;99.90;;;12.12;100.00;100668.66;10362243;28;96483;-89
2023/05/19 01:34:03;;;;;;;64.83;9.60;;;13.80;99.90;;;12.12;100.00;100668.66;10335892;28;97453;-89
2023/05/19 01:39:06;;;;;;;15.10;6.77;;;13.80;99.90;;;12.11;100.00;100678.44;10338509;28;96532;-89
2023/05/19 01:44:10;;;;;;;6.00;4.63;;;13.80;99.90;;;12.12;100.00;100668.66;10343159;28;96581;-89
2023/05/19 01:49:13;;;;;;;9.10;5.90;;;13.90;99.90;;;12.09;100.00;100674.28;10327901;28;96683;-89
2023/05/19 01:54:16;;;;;;;9.20;5.90;;;13.90;99.90;;;12.07;100.00;100669.13;10344057;28;96453;-89
2023/05/19 01:59:49;;;;;;;8.00;5.00;;;13.80;99.90;;;12.04;100.00;100656.97;10361463;28;96536;-89
2023/05/19 02:05:04;;;;;;;9.50;6.60;;;13.80;99.90;;;11.98;100.00;100654.97;10339161;28;96743;-89
2023/05/19 02:10:18;;;;;;;7.93;5.60;;;13.70;99.90;;;11.93;100.00;100657.28;10335204;28;96491;-89
2023/05/19 02:15:27;;;;;;;9.67;6.57;;;13.60;99.90;;;11.88;100.00;100662.31;10342370;28;98241;-87
2023/05/19 02:20:30;;;;;;;9.43;7.07;;;13.60;99.90;;;11.86;100.00;100661.63;10328561;28;96537;-88
2023/05/19 02:25:34;;;;;;;9.17;6.50;;;13.60;99.90;;;11.83;100.00;100661.97;10344257;28;96721;-89
2023/05/19 02:30:37;;;;;;;8.63;6.47;;;13.60;99.90;;;11.79;100.00;100663.25;10344332;28;96557;-89
2023/05/19 02:35:40;;;;;;;9.67;6.40;;;13.50;99.90;;;11.74;100.00;100652.25;10359736;28;96555;-89
2023/05/19 02:40:43;;;;;;;17.80;10.03;;;13.50;99.90;;;11.72;100.00;100648.94;10343420;28;96476;-88
2023/05/19 02:45:46;;;;;;;13.73;9.40;;;13.40;99.90;;;11.69;100.00;100657.22;10295530;28;97049;-87
2023/05/19 02:50:49;;;;;;;14.47;10.27;;;13.40;99.90;;;11.70;100.00;100653.59;10301865;28;97302;-89
2023/05/19 02:55:52;;;;;;;62.67;12.97;;;13.40;99.90;;;11.71;100.00;100655.25;10318369;28;97966;-89
2023/05/19 03:00:55;;;;;;;154.33;15.27;;;13.40;99.90;;;11.73;100.00;100661.25;10317231;28;96700;-89
2023/05/19 03:05:58;;;;;;;67.87;15.07;;;13.50;99.90;;;11.73;100.00;100663.91;10335342;28;96451;-89
2023/05/19 03:11:02;;;;;;;20.63;10.40;;;13.50;99.90;;;11.75;100.00;100675.22;10302032;28;96912;-89
2023/05/19 03:16:06;;;;;;;15.00;8.87;;;13.50;99.90;;;11.77;100.00;100675.91;10297286;28;98262;-89
2023/05/19 03:21:10;;;;;;;15.27;9.40;;;13.50;99.90;;;11.71;100.00;100668.56;10280915;28;96461;-89
2023/05/19 03:26:13;;;;;;;20.03;10.47;;;13.50;99.90;;;11.72;100.00;100675.56;10317807;28;96661;-88
2023/05/19 03:31:16;;;;;;;15.17;8.47;;;13.50;99.90;;;11.68;100.00;100677.69;10332189;28;98903;-88
2023/05/19 03:36:20;;;;;;;17.80;10.33;;;13.40;99.90;;;11.63;100.00;100671.19;10316617;28;96555;-89
2023/05/19 03:41:24;;;;;;;14.67;10.00;;;13.40;99.90;;;11.59;100.00;100659.22;10316866;28;96709;-89
2023/05/19 03:46:27;;;;;;;15.77;8.50;;;13.30;99.90;;;11.58;100.00;100671.69;10287827;28;97442;-88
2023/05/19 03:51:30;;;;;;;23.90;10.63;;;13.20;99.90;;;11.59;100.00;100667.22;10300903;28;96622;-88
2023/05/19 03:56:33;;;;;;;14.03;7.77;;;13.30;99.90;;;11.63;100.00;100658.72;10316655;28;96502;-88
2023/05/19 04:01:37;;;;;;;15.77;9.77;;;13.40;99.90;;;11.68;100.00;100655.56;10321531;28;96605;-88
2023/05/19 04:06:40;;;;;;;13.63;8.53;;;13.40;99.90;;;11.74;100.00;100668.22;10300162;28;97364;-88
2023/05/19 04:11:43;;;;;;;15.80;8.67;;;13.50;99.90;;;11.85;100.00;100672.44;10317613;28;96594;-88
2023/05/19 04:16:46;;;;;;;18.90;9.07;;;13.60;99.90;;;11.94;100.00;100682.13;10313425;28;97376;-88
2023/05/19 04:21:49;;;;;;;12.40;8.53;;;13.70;99.90;;;11.91;100.00;100672.59;10275044;28;96522;-87
2023/05/19 04:26:52;;;;;;;18.27;8.23;;;13.70;99.90;;;11.98;100.00;100688.75;10322274;28;98440;-88
2023/05/19 04:31:59;;;;;;;21.97;9.83;;;13.80;99.90;;;12.03;100.00;100689.09;10310065;28;96703;-89
2023/05/19 04:37:03;;;;;;;12.37;7.90;;;13.80;99.90;;;12.12;100.00;100695.28;10311984;28;96606;-89
2023/05/19 04:42:07;;;;;;;30.45;12.35;;;13.90;99.90;;;12.22;100.00;100701.25;10316808;28;97065;-89
2023/05/19 04:47:12;;;;;;;48.38;13.65;;;13.90;99.90;;;12.31;100.00;100701.09;10323557;28;96570;-89
2023/05/19 04:52:20;;;;;;;9.93;6.90;;;14.10;99.90;;;12.51;100.00;100706.91;10318727;28;97328;-88
2023/05/19 04:57:23;;;;;;;11.25;8.60;;;14.20;99.90;;;12.69;100.00;100713.91;10359520;28;96456;-88
2023/05/19 05:02:26;;;;;;;9.18;7.03;;;14.40;99.90;;;12.83;100.00;100716.72;10362470;28;97956;-88
2023/05/19 05:07:30;;;;;;;10.85;7.82;;;14.60;99.90;;;12.95;100.00;100706.50;10364847;28;96771;-88
2023/05/19 05:12:34;;;;;;;11.52;8.13;;;14.70;99.90;;;13.10;100.00;100706.63;10343850;28;97587;-88
2023/05/19 05:17:38;;;;;;;10.40;7.57;;;14.90;99.90;;;13.20;100.00;100712.63;10341219;28;96701;-88
2023/05/19 05:22:41;;;;;;;22.25;9.05;;;15.00;99.90;;;13.28;100.00;100717.13;10345745;28;97696;-87
2023/05/19 05:27:45;;;;;;;12.32;8.35;;;15.00;99.90;;;13.31;100.00;100722.94;10343638;28;97258;-88
2023/05/19 05:32:47;;;;;;;20.15;8.43;;;15.10;99.90;;;13.39;100.00;100728.25;10341435;28;96862;-89
2023/05/19 05:37:51;;;;;;;23.98;9.30;;;15.20;99.90;;;13.50;100.00;100724.38;10332439;28;96706;-87
2023/05/19 05:42:55;;;;;;;11.25;7.65;;;15.30;99.90;;;13.55;100.00;100726.50;10304553;28;96554;-87
2023/05/19 05:47:58;;;;;;;28.85;9.38;;;15.40;99.90;;;13.66;100.00;100732.28;10335616;28;96620;-89
2023/05/19 05:53:04;;;;;;;12.43;7.15;;;15.50;99.90;;;13.77;100.00;100724.88;10349781;28;96470;-87
2023/05/19 05:58:09;;;;;;;24.65;8.85;;;15.60;99.90;;;13.85;100.00;100724.81;10346177;28;96597;-87
2023/05/19 06:03:13;;;;;;;10.68;6.75;;;15.70;99.90;;;13.96;100.00;100718.25;10336476;28;96675;-87
2023/05/19 06:08:16;;;;;;;11.25;6.88;;;15.80;99.90;;;14.10;100.00;100721.00;10337236;28;96815;-88
2023/05/19 06:13:22;;;;;;;7.28;5.93;;;15.90;99.90;;;14.22;100.00;100721.44;10336159;28;96455;-87
2023/05/19 06:18:25;;;;;;;10.00;7.00;;;16.00;99.90;;;14.34;100.00;100729.84;10327074;28;96763;-87
2023/05/19 06:23:30;;;;;;;8.13;6.20;;;16.10;99.90;;;14.45;100.00;100729.41;10344182;28;96457;-87
2023/05/19 06:28:33;;;;;;;8.35;6.00;;;16.30;99.90;;;14.62;100.00;100732.81;10332496;28;97488;-86
2023/05/19 06:33:36;;;;;;;15.80;7.65;;;16.40;99.90;;;14.80;100.00;100744.00;10359414;28;96826;-88
2023/05/19 06:38:39;;;;;;;6.80;5.63;;;16.60;99.90;;;15.02;100.00;100752.16;10341611;28;96551;-87
2023/05/19 06:43:42;;;;;;;23.27;6.43;;;16.80;99.90;;;15.20;100.00;100744.59;10359583;28;96595;-87
2023/05/19 06:48:46;;;;;;;7.50;6.70;;;17.00;99.90;;;15.35;100.00;100741.91;10342544;28;96671;-87
2023/05/19 06:53:48;;;;;;;6.03;5.20;;;17.20;99.90;;;15.48;100.00;100742.09;10342875;28;96536;-88
2023/05/19 06:58:52;;;;;;;9.18;5.97;;;17.30;99.90;;;15.65;100.00;100746.25;10333071;28;96819;-87
2023/05/19 07:03:55;;;;;;;8.35;5.40;;;17.50;99.90;;;15.92;100.00;100743.88;10319013;28;96682;-86
2023/05/19 07:08:58;;;;;;;6.28;3.55;;;17.70;99.90;;;16.09;100.00;100747.16;10344211;28;96538;-87
2023/05/19 07:14:02;;;;;;;3.53;2.90;;;17.90;99.90;;;16.16;100.00;100748.88;10341607;28;98207;-87
2023/05/19 07:19:05;;;;;;;4.18;2.58;;;18.00;99.90;;;16.15;100.00;100755.28;10358402;28;96762;-87
2023/05/19 07:24:08;;;;;;;3.88;2.50;;;18.00;99.90;;;16.11;100.00;100745.94;10342264;28;96629;-85
2023/05/19 07:29:11;;;;;;;4.45;2.50;;;17.90;99.90;;;16.04;100.00;100748.56;10358773;28;96455;-86
2023/05/19 07:34:14;;;;;;;2.97;2.10;;;17.90;99.90;;;16.08;100.00;100749.00;10331473;28;96487;-87
2023/05/19 07:39:17;;;;;;;2.75;2.45;;;17.90;99.90;;;16.11;100.00;100745.09;10345770;28;96600;-86
2023/05/19 07:44:21;;;;;;;11.13;2.70;;;17.90;99.90;;;16.20;100.00;100742.13;10364784;28;97677;-87
2023/05/19 07:49:24;;;;;;;4.05;2.22;;;18.00;99.90;;;16.26;100.00;100745.91;10341944;28;96596;-85
2023/05/19 07:54:27;;;;;;;2.40;1.98;;;18.10;99.90;;;16.37;100.00;100736.47;10341229;28;96781;-85
2023/05/19 07:59:30;;;;;;;3.80;1.83;;;18.20;99.90;;;16.47;100.00;100737.00;10300852;28;96643;-87
2023/05/19 08:04:34;;;;;;;3.47;2.20;;;18.30;99.90;;;16.50;100.00;100737.44;10340837;28;96593;-85
2023/05/19 08:09:38;;;;;;;3.45;2.28;;;18.40;99.90;;;16.56;100.00;100734.00;10341866;28;96597;-86
2023/05/19 08:14:41;;;;;;;2.65;2.05;;;18.40;99.90;;;16.56;100.00;100723.25;10351830;28;97445;-87
2023/05/19 08:19:44;;;;;;;3.15;1.88;;;18.50;99.90;;;16.63;100.00;100717.94;10312873;28;96665;-87
2023/05/19 08:24:48;;;;;;;8.68;2.75;;;18.50;99.90;;;16.81;100.00;100706.75;10326149;28;96559;-87
2023/05/19 08:29:51;;;;;;;3.10;1.98;;;18.70;99.90;;;17.03;100.00;100713.72;10332328;28;96681;-86
2023/05/19 08:34:54;;;;;;;2.78;2.25;;;18.90;99.90;;;17.24;100.00;100712.78;10340043;28;97002;-87
2023/05/19 08:39:57;;;;;;;11.85;2.58;;;19.10;99.90;;;17.42;100.00;100714.09;10355216;28;96652;-89
2023/05/19 08:45:01;;;;;;;3.38;1.98;;;19.30;99.90;;;17.58;100.00;100714.59;10364610;28;98376;-86
2023/05/19 08:50:08;;;;;;;2.70;1.80;;;19.50;99.90;;;17.74;100.00;100716.09;10330061;28;96845;-89
2023/05/19 08:55:32;;;;;;;12.63;2.20;;;19.70;99.90;;;17.87;100.00;100716.16;10316100;28;97560;-91
2023/05/19 09:00:36;;;;;;;4.00;1.83;;;19.80;99.90;;;18.07;100.00;100715.38;10345416;28;98316;-90
2023/05/19 09:05:40;;;;;;;2.88;1.77;;;20.00;99.90;;;18.07;100.00;100710.00;10324663;28;96593;-90
2023/05/19 09:10:43;;;;;;;7.13;2.00;;;20.00;99.90;;;17.92;100.00;100707.47;10324165;28;96484;-89
2023/05/19 09:15:49;;;;;;;2.13;1.80;;;19.90;99.90;;;17.83;100.00;100716.78;10341114;28;96632;-89
2023/05/19 09:21:01;;;;;;;1.80;1.60;;;19.80;99.90;;;17.73;100.00;100717.16;10323795;28;96972;-90
2023/05/19 09:26:06;;;;;;;7.40;2.05;;;19.60;99.90;;;17.66;100.00;100714.41;10345768;28;97280;-95
2023/05/19 09:31:10;;;;;;;3.20;2.17;;;19.60;99.90;;;17.55;100.00;100719.53;10357752;28;96392;-93
2023/05/19 09:36:13;;;;;;;3.97;2.55;;;19.40;99.90;;;17.50;100.00;100708.56;10301182;22;97179;-90
2023/05/19 09:41:16;;;;;;;5.90;2.17;;;19.40;99.90;;;17.56;100.00;100710.44;10268545;28;98242;-90
2023/05/19 09:46:27;;;;;;;20.80;2.83;;;19.30;99.90;;;17.73;100.00;100701.00;10276473;28;96804;-92
2023/05/19 09:51:30;;;;;;;10.23;2.80;;;19.60;99.90;;;17.75;100.00;100708.88;10257094;28;96607;-89
2023/05/19 09:56:34;;;;;;;19.08;4.63;;;19.70;99.90;;;17.81;100.00;100703.53;10292047;28;96809;-88
2023/05/19 10:01:39;;;;;;;5.72;2.42;;;19.80;99.90;;;17.86;100.00;100700.22;10280234;28;96501;-87
2023/05/19 10:06:45;;;;;;;16.45;3.40;;;19.80;99.90;;;17.80;100.00;100696.47;10249213;28;96544;-88
2023/05/19 10:11:56;;;;;;;3.92;2.45;;;19.80;99.90;;;17.87;100.00;100696.50;10227920;28;97066;-88
2023/05/19 10:16:59;;;;;;;16.83;4.18;;;19.80;99.90;;;18.03;98.16;100690.75;10287998;28;96898;-89
2023/05/19 10:22:02;;;;;;;14.30;2.83;;;19.90;99.90;;;18.21;94.54;100679.38;10267629;28;96528;-88
2023/05/19 10:27:13;;;;;;;4.38;2.10;;;20.20;99.90;;;18.49;100.00;100672.97;10263012;28;97048;-89
2023/05/19 10:32:29;;;;;;;4.30;1.85;;;20.40;99.90;;;18.82;99.08;100662.19;10273715;28;96599;-89
2023/05/19 10:37:57;;;;;;;19.20;2.50;;;20.80;99.90;;;19.06;89.87;100657.97;10320536;28;96674;-89
2023/05/19 10:43:37;;;;;;;8.48;2.60;;;21.00;99.90;;;19.41;90.63;100653.91;10337045;28;96814;-90
2023/05/19 10:48:45;;;;;;;13.50;2.63;;;21.40;99.90;;;19.63;83.13;100651.75;10295449;28;96692;-88
2023/05/19 10:53:49;;;;;;;6.38;2.40;;;21.70;99.90;;;19.76;79.52;100648.13;10293300;28;97334;-89
2023/05/19 10:58:52;;;;;;;4.63;1.95;;;21.90;99.90;;;19.89;85.54;100647.22;10285358;28;96627;-89
2023/05/19 11:03:58;;;;;;;28.23;2.50;;;22.00;99.90;;;19.88;79.57;100643.69;10270857;28;96569;-89
2023/05/19 11:09:39;;;;;;;10.48;2.25;;;22.10;99.90;;;19.69;78.99;100642.78;10334650;28;97186;-89
2023/05/19 11:14:43;;;;;;;3.40;1.80;;;21.90;99.90;;;19.76;82.49;100640.88;10305965;28;98019;-88
2023/05/19 11:19:55;;;;;;;5.82;1.80;;;21.90;99.90;;;19.89;82.61;100636.44;10318317;28;97611;-88
2023/05/19 11:24:58;;;;;;;3.08;1.63;;;22.10;99.90;;;19.94;78.81;100623.94;10333898;28;96573;-90
2023/05/19 11:30:13;;;;;;;9.52;2.00;;;22.20;99.90;;;20.09;72.75;100620.94;10318546;28;96607;-88
2023/05/19 11:35:19;;;;;;;2.90;1.67;;;22.30;99.90;;;20.26;92.41;100632.00;10311278;28;96528;-89
2023/05/19 11:40:22;;;;;;;12.77;2.40;;;22.40;99.90;;;20.18;70.80;100627.69;10343024;28;96862;-88
2023/05/19 11:45:26;;;;;;;7.63;1.80;;;22.40;99.10;;;20.30;84.11;100631.34;10355802;28;96595;-87
2023/05/19 11:50:31;;;;;;;2.15;1.60;;;22.50;99.90;;;20.43;90.94;100626.84;10374206;28;96655;-88
2023/05/19 11:55:35;;;;;;;5.50;1.80;;;22.60;99.90;;;20.45;75.16;100625.63;10340465;28;96480;-88
2023/05/19 12:00:41;;;;;;;2.45;1.65;;;22.70;99.30;;;20.56;79.85;100619.47;10328224;28;98317;-88
2023/05/19 12:05:47;;;;;;;17.90;2.20;;;22.80;99.90;;;20.73;75.30;100627.81;10372261;28;96601;-87
2023/05/19 12:10:52;;;;;;;3.35;1.67;;;22.90;99.60;;;20.70;73.98;100617.50;10341884;28;98842;-88
2023/05/19 12:16:00;;;;;;;17.52;3.00;;;23.00;98.80;;;20.79;80.29;100616.13;10323732;28;96633;-88
2023/05/19 12:21:04;;;;;;;2.33;1.70;;;23.00;99.80;;;20.96;79.35;100613.66;10340986;28;97385;-88
2023/05/19 12:26:08;;;;;;;10.15;1.75;;;23.20;99.30;;;21.07;82.48;100615.59;10342863;28;96951;-88
2023/05/19 12:31:11;;;;;;;21.58;2.40;;;23.30;99.60;;;21.30;92.06;100603.28;10333279;28;98564;-89
2023/05/19 12:36:15;;;;;;;3.10;1.40;;;23.60;99.90;;;21.64;92.14;100594.47;10344455;28;96528;-88
2023/05/19 12:41:18;;;;;;;2.05;1.73;;;23.90;99.90;;;21.78;80.69;100580.75;10305992;28;96570;-88
2023/05/19 12:46:21;;;;;;;2.13;1.30;;;24.00;99.20;;;22.11;85.37;100577.53;10309737;28;97321;-88
2023/05/19 12:51:24;;;;;;;11.70;1.63;;;24.30;99.50;;;21.92;71.68;100576.78;10341910;28;96701;-89
2023/05/19 12:56:28;;;;;;;2.00;1.38;;;24.30;95.90;;;21.67;79.80;100578.84;10352739;28;97268;-88
2023/05/19 13:01:31;;;;;;;16.20;2.05;;;24.00;96.70;;;21.62;78.33;100564.13;10349207;28;98721;-87
2023/05/19 13:06:34;;;;;;;3.63;1.67;;;23.90;97.70;;;21.79;74.43;100556.19;10338292;28;96786;-87
2023/05/19 13:11:37;;;;;;;9.68;1.90;;;24.00;97.60;;;22.02;72.41;100563.50;10309690;28;96694;-89
2023/05/19 13:16:40;;;;;;;6.32;1.33;;;24.10;96.80;;;22.03;71.82;100556.19;10326283;28;98689;-87
2023/05/19 13:21:46;;;;;;;10.50;2.47;;;24.10;95.90;;;21.83;68.55;100557.38;10343133;28;96878;-87
2023/05/19 13:26:49;;;;;;;2.17;1.50;;;24.00;95.30;;;21.81;72.88;100547.81;10329401;28;96621;-87
2023/05/19 13:31:52;;;;;;;1.85;1.30;;;24.00;95.10;;;21.99;82.04;100544.19;10346191;28;96588;-87
2023/05/19 13:36:55;;;;;;;5.95;1.50;;;24.00;96.30;;;22.10;72.53;100538.00;10347457;28;96833;-87
2023/05/19 13:41:58;;;;;;;12.00;1.90;;;24.20;95.50;;;22.01;59.27;100534.78;10346147;28;96610;-88
2023/05/19 13:47:02;;;;;;;6.65;1.67;;;24.20;93.40;;;21.84;64.24;100520.31;10376504;28;96602;-87
2023/05/19 13:52:05;;;;;;;2.65;1.42;;;24.00;92.80;;;22.01;72.19;100533.94;10365479;28;98548;-87
2023/05/19 13:57:09;;;;;;;12.82;2.40;;;24.10;94.10;;;22.16;63.44;100526.22;10328237;28;96737;-87
2023/05/19 14:02:11;;;;;;;5.40;1.55;;;24.30;93.50;;;22.19;69.40;100517.66;10349260;28;96660;-87
2023/05/19 14:07:15;;;;;;;2.65;1.40;;;24.40;93.60;;;22.49;83.87;100520.19;10330079;28;96696;-87
2023/05/19 14:12:18;;;;;;;1.85;1.50;;;24.60;94.00;;;22.66;73.03;100523.78;10362018;28;96606;-88
2023/05/19 14:17:27;;;;;;;4.20;1.35;;;24.80;94.20;;;22.89;72.67;100519.38;10346315;28;96488;-88
2023/05/19 14:22:30;;;;;;;12.85;1.88;;;25.10;94.00;;;23.04;70.73;100511.56;10386074;28;96602;-88
2023/05/19 14:27:33;;;;;;;2.15;1.23;;;25.40;93.50;;;23.33;72.07;100515.09;10373374;28;96876;-88
2023/05/19 14:32:36;;;;;;;14.60;1.85;;;25.90;93.20;;;23.45;59.13;100512.28;10324211;28;98050;-86
2023/05/19 14:37:39;;;;;;;5.97;1.35;;;26.30;91.20;;;23.38;63.77;100512.44;10314844;28;99511;-87
2023/05/19 14:42:42;;;;;;;2.45;1.55;;;26.30;90.90;;;23.64;68.71;100497.47;10354466;28;96664;-88
2023/05/19 14:47:45;;;;;;;26.98;3.30;;;26.60;91.20;;;23.84;60.45;100504.28;10346502;28;96531;-87
2023/05/19 14:52:49;;;;;;;3.45;1.50;;;27.10;87.10;;;24.28;70.81;100499.75;10361711;28;96644;-88
2023/05/19 14:57:52;;;;;;;2.83;1.20;;;27.60;88.50;;;24.73;73.32;100496.81;10353190;28;96686;-88
2023/05/19 15:02:55;;;;;;;2.38;1.30;;;28.00;87.30;;;24.55;64.77;100489.00;10360319;28;96982;-87
2023/05/19 15:07:58;;;;;;;5.07;1.35;;;27.60;85.20;;;24.60;70.09;100499.13;10341056;28;96722;-89
2023/05/19 15:13:03;;;;;;;4.53;1.50;;;27.50;87.10;;;24.65;58.12;100491.00;10359881;28;96671;-89
2023/05/19 15:18:06;;;;;;;2.50;1.40;;;27.70;81.50;;;24.95;68.87;100485.94;10342358;28;96736;-88
2023/05/19 15:23:08;;;;;;;45.15;2.78;;;27.90;84.90;;;25.15;59.25;100485.34;10333132;28;96531;-88
2023/05/19 15:28:11;;;;;;;6.63;1.60;;;28.00;83.90;;;25.07;67.07;100489.34;10350235;28;96617;-88
2023/05/19 15:33:15;;;;;;;7.65;1.60;;;27.80;83.80;;;24.62;64.96;100488.81;10320859;28;96950;-90
2023/05/19 15:38:19;;;;;;;36.63;2.67;;;27.20;83.40;;;24.04;62.12;100486.38;10300294;28;96717;-87
2023/05/19 15:43:22;;;;;;;14.95;1.73;;;26.60;84.20;;;23.50;61.95;100486.06;10284053;28;96461;-87
2023/05/19 15:48:27;;;;;;;11.68;3.25;;;25.90;84.40;;;23.18;79.27;100493.94;10308005;28;96817;-87
2023/05/19 15:53:32;;;;;;;4.10;1.83;;;25.40;89.10;;;23.22;70.58;100488.84;10321811;28;97965;-86
2023/05/19 15:58:35;;;;;;;6.05;2.20;;;25.50;90.30;;;23.46;79.75;100482.22;10357873;28;96496;-87
2023/05/19 16:03:38;;;;;;;3.28;1.50;;;25.70;91.00;;;23.29;70.42;100472.44;10341454;28;97020;-86
2023/05/19 16:08:43;;;;;;;5.10;1.30;;;25.50;90.20;;;23.02;80.63;100481.16;10335797;28;96651;-89
2023/05/19 16:13:47;;;;;;;3.45;1.30;;;25.10;91.40;;;22.74;81.73;100487.38;10372854;28;96575;-89
2023/05/19 16:18:50;;;;;;;2.78;1.77;;;24.70;91.90;;;22.43;81.35;100499.47;10365269;28;96848;-89
2023/05/19 16:23:53;;;;;;;2.13;1.48;;;24.40;92.00;;;22.16;84.69;100494.56;10353798;28;96648;-90
2023/05/19 16:28:55;;;;;;;1.88;1.40;;;24.10;93.00;;;21.83;81.34;100500.56;10353999;28;96591;-89
2023/05/19 16:33:58;;;;;;;6.82;2.10;;;23.70;93.50;;;21.59;82.94;100501.56;10319861;28;96653;-89
2023/05/19 16:39:01;;;;;;;4.80;2.22;;;23.40;94.30;;;21.39;86.42;100496.47;10356227;28;97601;-89
2023/05/19 16:44:04;;;;;;;2.55;1.52;;;23.20;95.00;;;21.23;89.84;100494.41;10338046;28;96602;-88
2023/05/19 16:49:07;;;;;;;2.20;1.70;;;23.00;95.70;;;21.07;92.08;100499.41;10313577;28;97297;-88
2023/05/19 16:54:10;;;;;;;4.45;1.70;;;22.80;96.80;;;20.92;91.96;100490.06;10343785;28;96592;-88
2023/05/19 16:59:13;;;;;;;7.85;1.90;;;22.70;97.90;;;20.76;90.71;100486.97;10365555;28;96845;-89
2023/05/19 17:04:16;;;;;;;4.10;1.88;;;22.50;98.60;;;20.61;91.63;100494.63;10323780;28;97485;-89
2023/05/19 17:09:23;;;;;;;3.38;1.95;;;22.40;99.90;;;20.43;94.15;100500.00;10330117;28;97536;-88
2023/05/19 17:14:27;;;;;;;2.88;1.70;;;22.20;99.90;;;20.20;96.49;100485.28;10361786;28;96800;-88
2023/05/19 17:19:30;;;;;;;3.03;2.03;;;22.00;99.90;;;20.07;96.99;100496.22;10358466;28;96677;-88
2023/05/19 17:24:33;;;;;;;3.58;2.03;;;21.80;99.90;;;19.87;96.98;100491.03;10330191;28;96529;-88
2023/05/19 17:29:36;;;;;;;5.93;3.17;;;21.60;99.90;;;19.75;98.92;100504.41;10344647;28;97448;-88
2023/05/19 17:34:40;;;;;;;40.08;3.95;;;21.40;99.90;;;19.58;97.64;100505.16;10306195;28;97783;-88
2023/05/19 17:39:43;;;;;;;7.07;3.08;;;21.30;99.90;;;19.42;99.90;100512.72;10346539;28;96414;-88
2023/05/19 17:44:46;;;;;;;7.82;3.70;;;21.10;99.90;;;19.27;100.00;100514.91;10380068;28;97598;-88
2023/05/19 17:49:51;;;;;;;8.25;5.47;;;21.00;99.90;;;19.06;100.00;100521.44;10336399;28;97391;-88
2023/05/19 17:54:55;;;;;;;13.18;11.77;;;20.80;99.90;;;18.89;100.00;100520.28;10308336;28;96622;-88
2023/05/19 17:59:59;;;;;;;11.27;7.63;;;20.60;99.90;;;18.69;100.00;100528.44;10319533;28;98359;-88
2023/05/19 18:05:04;;;;;;;6.10;4.13;;;20.40;99.90;;;18.49;100.00;100527.66;10360228;28;96692;-88
2023/05/19 18:10:08;;;;;;;5.57;3.35;;;20.20;99.90;;;18.24;100.00;100531.03;10359931;28;96606;-88
2023/05/19 18:15:13;;;;;;;4.22;3.08;;;19.90;99.90;;;18.00;100.00;100539.75;10349046;28;96734;-87
2023/05/19 18:20:17;;;;;;;6.20;2.50;;;19.70;99.90;;;17.82;100.00;100540.38;10343243;28;97289;-88
2023/05/19 18:25:20;;;;;;;9.63;3.28;;;19.50;99.90;;;17.62;100.00;100540.31;10335624;28;98869;-88
2023/05/19 18:30:23;;;;;;;4.97;2.58;;;19.30;99.90;;;17.44;100.00;100545.47;10337218;28;98327;-89
2023/05/19 18:35:26;;;;;;;9.52;3.47;;;19.10;99.90;;;17.23;100.00;100544.63;10339798;28;96904;-88
2023/05/19 18:40:29;;;;;;;8.77;4.43;;;18.90;99.90;;;17.05;100.00;100552.41;10340611;28;97036;-89
2023/05/19 18:45:33;;;;;;;7.88;4.07;;;18.70;99.90;;;16.89;100.00;100556.28;10323592;28;98305;-88
2023/05/19 18:50:39;;;;;;;8.80;3.70;;;18.50;99.90;;;16.73;100.00;100554.78;10354620;28;96685;-88
2023/05/19 18:55:42;;;;;;;5.15;3.40;;;18.40;99.90;;;16.55;100.00;100557.94;10338146;28;98418;-89
2023/05/19 19:00:46;;;;;;;7.30;4.47;;;18.20;99.90;;;16.47;100.00;100573.38;10358984;28;96594;-89
2023/05/19 19:05:57;;;;;;;4.97;4.03;;;18.10;99.90;;;16.35;100.00;100569.56;10337097;28;97540;-90
2023/05/19 19:11:00;;;;;;;13.85;6.13;;;17.90;99.90;;;16.24;100.00;100576.31;10357394;28;96536;-89
2023/05/19 19:16:03;;;;;;;4.20;3.58;;;17.80;99.90;;;16.10;100.00;100570.03;10302176;28;96677;-88
2023/05/19 19:21:06;;;;;;;10.25;6.72;;;17.70;99.90;;;15.98;100.00;100567.03;10326442;28;97163;-88
2023/05/19 19:26:09;;;;;;;5.57;4.75;;;17.50;99.90;;;15.91;100.00;100570.69;10326050;28;96631;-89
2023/05/19 19:31:13;;;;;;;6.28;4.53;;;17.50;99.90;;;15.81;100.00;100580.91;10350691;28;96619;-89
2023/05/19 19:36:16;;;;;;;4.68;3.17;;;17.40;99.90;;;15.70;100.00;100580.41;10316175;28;96921;-89
2023/05/19 19:41:20;;;;;;;10.48;4.72;;;17.30;99.90;;;15.63;100.00;100589.41;10341191;28;96544;-89
2023/05/19 19:46:23;;;;;;;4.63;3.53;;;17.20;99.90;;;15.56;100.00;100583.94;10325876;28;96612;-90
2023/05/19 19:51:27;;;;;;;6.05;3.38;;;17.20;99.90;;;15.56;100.00;100594.66;10356978;28;97541;-90
2023/05/19 19:56:30;;;;;;;5.82;3.88;;;17.10;99.90;;;15.52;100.00;100596.06;10318774;28;96684;-89
2023/05/19 20:01:32;;;;;;;5.90;3.50;;;17.10;99.90;;;15.51;100.00;100613.16;10335503;28;97867;-89
2023/05/19 20:06:37;;;;;;;5.47;4.72;;;17.10;99.90;;;15.43;100.00;100611.41;10316868;28;98483;-89
2023/05/19 20:11:39;;;;;;;3.60;3.05;;;17.10;99.90;;;15.45;100.00;100604.03;10341438;28;96878;-89
2023/05/19 20:16:45;;;;;;;4.88;3.30;;;17.00;99.90;;;15.36;100.00;100599.00;10345510;28;97492;-90
2023/05/19 20:21:48;;;;;;;77.25;10.23;;;17.00;99.90;;;15.40;100.00;100605.59;10355832;28;96619;-90
2023/05/19 20:26:51;;;;;;;4.35;3.22;;;17.00;99.90;;;15.37;100.00;100609.50;10347977;28;97656;-89
2023/05/19 20:31:54;;;;;;;7.05;4.88;;;17.00;99.90;;;15.42;100.00;100606.25;10333324;28;96740;-90
2023/05/19 20:36:58;;;;;;;5.43;3.08;;;17.00;99.90;;;15.42;100.00;100611.63;10353669;28;96834;-89
2023/05/19 20:42:01;;;;;;;4.47;3.92;;;17.00;99.90;;;15.38;100.00;100607.66;10336678;28;98711;-89